TimeCST,TemperatureF,Dew PointF,Humidity,Sea Level PressureIn,VisibilityMPH,Wind Direction,Wind SpeedMPH,Gust SpeedMPH,PrecipitationIn,Events,Conditions,WindDirDegrees,DateUTC
12:53 AM,32.0,23.0,69,30.17,9.0,SE,5.8,-,N/A,,Clear,140,2013-01-08 06:53:00
1:53 AM,30.9,23.0,72,30.17,9.0,SE,4.6,-,N/A,,Clear,130,2013-01-08 07:53:00
2:53 AM,32.0,23.0,69,30.17,9.0,SE,3.5,-,N/A,,Clear,140,2013-01-08 08:53:00
3:53 AM,30.0,24.1,79,30.16,9.0,Calm,Calm,-,N/A,,Clear,0,2013-01-08 09:53:00
4:53 AM,30.0,23.0,75,30.16,9.0,East,3.5,-,N/A,,Clear,100,2013-01-08 10:53:00
5:53 AM,30.0,23.0,75,30.17,9.0,East,3.5,-,N/A,,Clear,100,2013-01-08 11:53:00
6:53 AM,28.9,23.0,78,30.19,9.0,Calm,Calm,-,N/A,,Clear,0,2013-01-08 12:53:00
7:53 AM,28.9,24.1,82,30.20,7.0,Calm,Calm,-,N/A,,Partly Cloudy,0,2013-01-08 13:53:00
8:53 AM,36.0,27.0,70,30.22,8.0,SSE,5.8,-,N/A,,Clear,160,2013-01-08 14:53:00
9:53 AM,41.0,28.0,60,30.21,9.0,SE,6.9,-,N/A,,Partly Cloudy,140,2013-01-08 15:53:00
10:53 AM,46.0,28.0,50,30.19,9.0,South,9.2,-,N/A,,Partly Cloudy,170,2013-01-08 16:53:00
11:53 AM,50.0,28.0,43,30.16,10.0,South,9.2,-,N/A,,Partly Cloudy,180,2013-01-08 17:53:00
12:53 PM,53.1,30.9,43,30.11,10.0,ESE,5.8,-,N/A,,Scattered Clouds,120,2013-01-08 18:53:00
1:53 PM,55.9,32.0,40,30.09,10.0,Variable,6.9,-,N/A,,Clear,0,2013-01-08 19:53:00
2:53 PM,55.0,36.0,49,30.11,10.0,South,8.1,-,N/A,,Clear,170,2013-01-08 20:53:00
3:53 PM,54.0,35.1,49,30.12,10.0,SSE,8.1,-,N/A,,Overcast,160,2013-01-08 21:53:00
4:21 PM,53.6,33.8,47,30.12,10.0,South,8.1,-,N/A,,Overcast,170,2013-01-08 22:21:00
4:53 PM,53.1,34.0,48,30.14,10.0,SSE,6.9,-,N/A,,Overcast,160,2013-01-08 22:53:00
5:21 PM,51.8,33.8,50,30.13,10.0,SSE,3.5,-,N/A,,Overcast,150,2013-01-08 23:21:00
5:53 PM,52.0,34.0,50,30.14,10.0,SSE,4.6,-,N/A,,Overcast,160,2013-01-08 23:53:00
6:53 PM,50.0,37.0,61,30.14,10.0,Calm,Calm,-,0.00,,Overcast,0,2013-01-09 00:53:00
7:53 PM,50.0,36.0,59,30.15,10.0,SE,3.5,-,N/A,,Overcast,140,2013-01-09 01:53:00
8:23 PM,50.0,35.6,58,30.16,10.0,Calm,Calm,-,N/A,,Overcast,0,2013-01-09 02:23:00
8:37 PM,50.0,35.6,58,30.16,10.0,SSE,3.5,-,N/A,,Overcast,150,2013-01-09 02:37:00
8:53 PM,48.9,36.0,61,30.17,10.0,SE,3.5,-,N/A,,Overcast,140,2013-01-09 02:53:00
9:53 PM,48.9,36.0,61,30.17,10.0,ESE,3.5,-,N/A,,Mostly Cloudy,120,2013-01-09 03:53:00